sensor_id;sensor_type;location;lat;lon;timestamp;P1;durP1;ratioP1;P2;durP2;ratioP2
64678;SDS011;51094;53.864;27.676;2023-11-21T00:01:26;2.63;;;2.63;;
64678;SDS011;51094;53.864;27.676;2023-11-21T00:03:53;3.30;;;3.25;;
64678;SDS011;51094;53.864;27.676;2023-11-21T00:06:22;3.15;;;3.15;;
64678;SDS011;51094;53.864;27.676;2023-11-21T00:08:49;2.88;;;2.78;;
64678;SDS011;51094;53.864;27.676;2023-11-21T00:11:16;2.85;;;2.80;;
64678;SDS011;51094;53.864;27.676;2023-11-21T00:13:43;2.83;;;2.83;;
64678;SDS011;51094;53.864;27.676;2023-11-21T00:16:10;2.85;;;2.85;;
64678;SDS011;51094;53.864;27.676;2023-11-21T00:18:37;3.00;;;3.00;;
64678;SDS011;51094;53.864;27.676;2023-11-21T00:21:04;2.53;;;2.53;;
64678;SDS011;51094;53.864;27.676;2023-11-21T00:23:31;3.13;;;3.03;;
64678;SDS011;51094;53.864;27.676;2023-11-21T00:25:58;3.20;;;3.10;;
64678;SDS011;51094;53.864;27.676;2023-11-21T00:28:26;2.80;;;2.80;;
64678;SDS011;51094;53.864;27.676;2023-11-21T00:30:53;2.90;;;2.90;;
64678;SDS011;51094;53.864;27.676;2023-11-21T00:33:20;2.45;;;2.45;;
64678;SDS011;51094;53.864;27.676;2023-11-21T00:35:47;2.83;;;2.83;;
64678;SDS011;51094;53.864;27.676;2023-11-21T00:38:14;2.70;;;2.70;;
64678;SDS011;51094;53.864;27.676;2023-11-21T00:40:41;2.63;;;2.63;;
64678;SDS011;51094;53.864;27.676;2023-11-21T00:43:08;2.80;;;2.70;;
64678;SDS011;51094;53.864;27.676;2023-11-21T00:45:35;2.83;;;2.83;;
64678;SDS011;51094;53.864;27.676;2023-11-21T00:48:03;2.50;;;2.50;;
64678;SDS011;51094;53.864;27.676;2023-11-21T00:50:32;2.78;;;2.67;;
64678;SDS011;51094;53.864;27.676;2023-11-21T00:52:58;2.47;;;2.40;;
64678;SDS011;51094;53.864;27.676;2023-11-21T00:55:26;2.30;;;2.30;;
64678;SDS011;51094;53.864;27.676;2023-11-21T00:57:54;2.80;;;2.70;;
64678;SDS011;51094;53.864;27.676;2023-11-21T01:00:21;2.40;;;2.40;;
64678;SDS011;51094;53.864;27.676;2023-11-21T01:02:48;2.45;;;2.45;;
64678;SDS011;51094;53.864;27.676;2023-11-21T01:05:15;2.55;;;2.55;;
64678;SDS011;51094;53.864;27.676;2023-11-21T01:07:42;2.25;;;2.25;;
64678;SDS011;51094;53.864;27.676;2023-11-21T01:10:10;2.70;;;2.60;;
64678;SDS011;51094;53.864;27.676;2023-11-21T01:12:37;2.60;;;2.60;;
64678;SDS011;51094;53.864;27.676;2023-11-21T01:15:05;2.30;;;2.30;;
64678;SDS011;51094;53.864;27.676;2023-11-21T01:17:38;2.47;;;2.47;;
64678;SDS011;51094;53.864;27.676;2023-11-21T01:20:06;2.13;;;2.13;;
64678;SDS011;51094;53.864;27.676;2023-11-21T01:22:39;2.10;;;2.10;;
64678;SDS011;51094;53.864;27.676;2023-11-21T01:25:06;2.08;;;2.08;;
64678;SDS011;51094;53.864;27.676;2023-11-21T01:27:34;2.08;;;2.08;;
64678;SDS011;51094;53.864;27.676;2023-11-21T01:30:02;2.00;;;2.00;;
64678;SDS011;51094;53.864;27.676;2023-11-21T01:32:30;2.10;;;2.10;;
64678;SDS011;51094;53.864;27.676;2023-11-21T01:34:57;2.20;;;2.20;;
64678;SDS011;51094;53.864;27.676;2023-11-21T01:37:25;2.20;;;2.20;;
64678;SDS011;51094;53.864;27.676;2023-11-21T01:39:55;2.10;;;2.10;;
64678;SDS011;51094;53.864;27.676;2023-11-21T01:42:22;2.05;;;2.05;;
64678;SDS011;51094;53.864;27.676;2023-11-21T01:44:49;2.50;;;2.40;;
64678;SDS011;51094;53.864;27.676;2023-11-21T01:47:17;2.00;;;2.00;;
64678;SDS011;51094;53.864;27.676;2023-11-21T01:49:44;2.10;;;2.10;;
64678;SDS011;51094;53.864;27.676;2023-11-21T01:52:13;1.90;;;1.90;;
64678;SDS011;51094;53.864;27.676;2023-11-21T01:54:41;2.05;;;2.05;;
64678;SDS011;51094;53.864;27.676;2023-11-21T01:57:09;2.08;;;2.08;;
64678;SDS011;51094;53.864;27.676;2023-11-21T01:59:37;2.25;;;2.25;;
64678;SDS011;51094;53.864;27.676;2023-11-21T02:02:05;2.20;;;2.20;;
64678;SDS011;51094;53.864;27.676;2023-11-21T02:04:35;1.95;;;1.95;;
64678;SDS011;51094;53.864;27.676;2023-11-21T02:07:03;2.05;;;2.05;;
64678;SDS011;51094;53.864;27.676;2023-11-21T02:09:34;2.20;;;2.20;;
64678;SDS011;51094;53.864;27.676;2023-11-21T02:12:04;2.15;;;2.15;;
64678;SDS011;51094;53.864;27.676;2023-11-21T02:14:32;2.50;;;2.50;;
64678;SDS011;51094;53.864;27.676;2023-11-21T02:16:59;2.40;;;2.40;;
64678;SDS011;51094;53.864;27.676;2023-11-21T02:19:27;2.65;;;2.65;;
64678;SDS011;51094;53.864;27.676;2023-11-21T02:21:57;2.53;;;2.53;;
64678;SDS011;51094;53.864;27.676;2023-11-21T02:24:31;2.80;;;2.70;;
64678;SDS011;51094;53.864;27.676;2023-11-21T02:26:59;2.88;;;2.88;;
64678;SDS011;51094;53.864;27.676;2023-11-21T02:29:26;2.88;;;2.88;;
64678;SDS011;51094;53.864;27.676;2023-11-21T02:31:56;2.70;;;2.70;;
64678;SDS011;51094;53.864;27.676;2023-11-21T02:34:24;2.80;;;2.80;;
64678;SDS011;51094;53.864;27.676;2023-11-21T02:36:54;2.67;;;2.67;;
64678;SDS011;51094;53.864;27.676;2023-11-21T02:39:22;2.60;;;2.60;;
64678;SDS011;51094;53.864;27.676;2023-11-21T02:41:49;2.80;;;2.80;;
64678;SDS011;51094;53.864;27.676;2023-11-21T02:44:17;2.65;;;2.65;;
64678;SDS011;51094;53.864;27.676;2023-11-21T02:46:44;2.83;;;2.83;;
64678;SDS011;51094;53.864;27.676;2023-11-21T02:49:11;2.40;;;2.40;;
64678;SDS011;51094;53.864;27.676;2023-11-21T02:51:38;2.63;;;2.63;;
64678;SDS011;51094;53.864;27.676;2023-11-21T02:54:06;2.60;;;2.60;;
64678;SDS011;51094;53.864;27.676;2023-11-21T02:56:35;2.75;;;2.75;;
64678;SDS011;51094;53.864;27.676;2023-11-21T02:59:02;2.20;;;2.20;;
64678;SDS011;51094;53.864;27.676;2023-11-21T03:01:29;2.42;;;2.42;;
64678;SDS011;51094;53.864;27.676;2023-11-21T03:03:57;2.25;;;2.25;;
64678;SDS011;51094;53.864;27.676;2023-11-21T03:06:24;2.15;;;2.15;;
64678;SDS011;51094;53.864;27.676;2023-11-21T03:08:51;2.40;;;2.40;;
64678;SDS011;51094;53.864;27.676;2023-11-21T03:11:18;2.20;;;2.20;;
64678;SDS011;51094;53.864;27.676;2023-11-21T03:13:45;2.47;;;2.47;;
64678;SDS011;51094;53.864;27.676;2023-11-21T03:16:12;2.33;;;2.33;;
64678;SDS011;51094;53.864;27.676;2023-11-21T03:18:39;1.90;;;1.90;;
64678;SDS011;51094;53.864;27.676;2023-11-21T03:21:07;2.20;;;2.20;;
64678;SDS011;51094;53.864;27.676;2023-11-21T03:26:04;1.88;;;1.88;;
64678;SDS011;51094;53.864;27.676;2023-11-21T03:28:32;1.98;;;1.98;;
64678;SDS011;51094;53.864;27.676;2023-11-21T03:30:59;2.10;;;2.10;;
64678;SDS011;51094;53.864;27.676;2023-11-21T03:33:26;2.10;;;2.10;;
64678;SDS011;51094;53.864;27.676;2023-11-21T03:35:53;2.17;;;2.17;;
64678;SDS011;51094;53.864;27.676;2023-11-21T03:38:20;2.08;;;2.08;;
64678;SDS011;51094;53.864;27.676;2023-11-21T03:40:47;2.10;;;2.10;;
64678;SDS011;51094;53.864;27.676;2023-11-21T03:43:14;2.00;;;2.00;;
64678;SDS011;51094;53.864;27.676;2023-11-21T03:45:41;2.08;;;2.08;;
64678;SDS011;51094;53.864;27.676;2023-11-21T03:48:09;1.95;;;1.95;;
64678;SDS011;51094;53.864;27.676;2023-11-21T03:50:38;2.13;;;2.13;;
64678;SDS011;51094;53.864;27.676;2023-11-21T03:53:05;2.10;;;2.10;;
64678;SDS011;51094;53.864;27.676;2023-11-21T03:55:32;2.15;;;2.15;;
64678;SDS011;51094;53.864;27.676;2023-11-21T03:57:59;2.30;;;2.30;;
64678;SDS011;51094;53.864;27.676;2023-11-21T04:00:27;2.13;;;2.13;;
64678;SDS011;51094;53.864;27.676;2023-11-21T04:02:54;2.22;;;2.22;;
64678;SDS011;51094;53.864;27.676;2023-11-21T04:05:21;2.60;;;2.60;;
64678;SDS011;51094;53.864;27.676;2023-11-21T04:07:50;2.30;;;2.30;;
64678;SDS011;51094;53.864;27.676;2023-11-21T04:10:20;2.10;;;2.10;;
64678;SDS011;51094;53.864;27.676;2023-11-21T04:12:47;2.40;;;2.40;;
64678;SDS011;51094;53.864;27.676;2023-11-21T04:15:15;2.30;;;2.30;;
64678;SDS011;51094;53.864;27.676;2023-11-21T04:17:42;2.50;;;2.50;;
64678;SDS011;51094;53.864;27.676;2023-11-21T04:20:09;2.45;;;2.45;;
64678;SDS011;51094;53.864;27.676;2023-11-21T04:22:38;2.30;;;2.30;;
64678;SDS011;51094;53.864;27.676;2023-11-21T04:25:11;2.65;;;2.65;;
64678;SDS011;51094;53.864;27.676;2023-11-21T04:27:39;3.33;;;3.22;;
64678;SDS011;51094;53.864;27.676;2023-11-21T04:30:07;2.30;;;2.30;;
64678;SDS011;51094;53.864;27.676;2023-11-21T04:32:36;2.60;;;2.60;;
64678;SDS011;51094;53.864;27.676;2023-11-21T04:35:03;2.53;;;2.53;;
64678;SDS011;51094;53.864;27.676;2023-11-21T04:37:30;2.50;;;2.50;;
64678;SDS011;51094;53.864;27.676;2023-11-21T04:39:57;2.42;;;2.42;;
64678;SDS011;51094;53.864;27.676;2023-11-21T04:42:24;2.30;;;2.30;;
64678;SDS011;51094;53.864;27.676;2023-11-21T04:44:51;2.40;;;2.40;;
64678;SDS011;51094;53.864;27.676;2023-11-21T04:47:19;2.80;;;2.70;;
64678;SDS011;51094;53.864;27.676;2023-11-21T04:49:46;2.97;;;2.97;;
64678;SDS011;51094;53.864;27.676;2023-11-21T04:52:16;3.72;;;3.63;;
64678;SDS011;51094;53.864;27.676;2023-11-21T04:54:43;3.60;;;3.50;;
64678;SDS011;51094;53.864;27.676;2023-11-21T05:02:06;2.80;;;2.80;;
64678;SDS011;51094;53.864;27.676;2023-11-21T05:04:33;2.92;;;2.92;;
64678;SDS011;51094;53.864;27.676;2023-11-21T05:12:39;2.63;;;2.60;;
64678;SDS011;51094;53.864;27.676;2023-11-21T05:15:08;3.03;;;2.92;;
64678;SDS011;51094;53.864;27.676;2023-11-21T05:17:38;2.90;;;2.80;;
64678;SDS011;51094;53.864;27.676;2023-11-21T05:23:41;3.15;;;3.05;;
64678;SDS011;51094;53.864;27.676;2023-11-21T05:26:08;3.33;;;3.22;;
64678;SDS011;51094;53.864;27.676;2023-11-21T05:32:06;2.85;;;2.85;;
64678;SDS011;51094;53.864;27.676;2023-11-21T05:34:34;3.00;;;3.00;;
64678;SDS011;51094;53.864;27.676;2023-11-21T05:37:01;2.88;;;2.88;;
64678;SDS011;51094;53.864;27.676;2023-11-21T05:39:28;3.22;;;3.22;;
64678;SDS011;51094;53.864;27.676;2023-11-21T05:41:55;3.50;;;3.40;;
64678;SDS011;51094;53.864;27.676;2023-11-21T05:44:24;3.33;;;3.25;;
64678;SDS011;51094;53.864;27.676;2023-11-21T05:46:51;3.22;;;3.13;;
64678;SDS011;51094;53.864;27.676;2023-11-21T05:49:21;3.03;;;2.97;;
64678;SDS011;51094;53.864;27.676;2023-11-21T05:51:49;3.17;;;3.08;;
64678;SDS011;51094;53.864;27.676;2023-11-21T05:54:16;2.65;;;2.65;;
64678;SDS011;51094;53.864;27.676;2023-11-21T05:56:43;2.70;;;2.70;;
64678;SDS011;51094;53.864;27.676;2023-11-21T05:59:11;2.60;;;2.60;;
64678;SDS011;51094;53.864;27.676;2023-11-21T06:01:38;3.17;;;3.10;;
64678;SDS011;51094;53.864;27.676;2023-11-21T06:04:05;2.97;;;2.97;;
64678;SDS011;51094;53.864;27.676;2023-11-21T06:09:38;3.80;;;3.70;;
64678;SDS011;51094;53.864;27.676;2023-11-21T06:12:05;3.60;;;3.50;;
64678;SDS011;51094;53.864;27.676;2023-11-21T06:14:32;3.50;;;3.40;;
64678;SDS011;51094;53.864;27.676;2023-11-21T06:17:01;3.97;;;3.88;;
64678;SDS011;51094;53.864;27.676;2023-11-21T06:19:29;4.00;;;3.90;;
64678;SDS011;51094;53.864;27.676;2023-11-21T06:21:56;3.83;;;3.72;;
64678;SDS011;51094;53.864;27.676;2023-11-21T06:24:23;3.72;;;3.63;;
64678;SDS011;51094;53.864;27.676;2023-11-21T06:26:50;3.67;;;3.58;;
64678;SDS011;51094;53.864;27.676;2023-11-21T06:29:17;3.50;;;3.40;;
64678;SDS011;51094;53.864;27.676;2023-11-21T06:31:43;3.40;;;3.30;;
64678;SDS011;51094;53.864;27.676;2023-11-21T06:34:10;3.30;;;3.20;;
64678;SDS011;51094;53.864;27.676;2023-11-21T06:36:37;3.55;;;3.45;;
64678;SDS011;51094;53.864;27.676;2023-11-21T06:39:04;3.22;;;3.13;;
64678;SDS011;51094;53.864;27.676;2023-11-21T06:41:35;3.45;;;3.35;;
64678;SDS011;51094;53.864;27.676;2023-11-21T06:47:23;3.28;;;3.17;;
64678;SDS011;51094;53.864;27.676;2023-11-21T06:53:27;3.05;;;3.05;;
64678;SDS011;51094;53.864;27.676;2023-11-21T06:55:54;3.40;;;3.38;;
64678;SDS011;51094;53.864;27.676;2023-11-21T06:58:21;3.55;;;3.45;;
64678;SDS011;51094;53.864;27.676;2023-11-21T07:03:49;3.70;;;3.60;;
64678;SDS011;51094;53.864;27.676;2023-11-21T07:06:16;3.90;;;3.80;;
64678;SDS011;51094;53.864;27.676;2023-11-21T07:11:47;4.15;;;4.05;;
64678;SDS011;51094;53.864;27.676;2023-11-21T07:14:15;3.63;;;3.53;;
64678;SDS011;51094;53.864;27.676;2023-11-21T07:20:15;3.60;;;3.50;;
64678;SDS011;51094;53.864;27.676;2023-11-21T07:22:43;3.53;;;3.42;;
64678;SDS011;51094;53.864;27.676;2023-11-21T07:25:11;3.97;;;3.88;;
64678;SDS011;51094;53.864;27.676;2023-11-21T07:28:29;3.67;;;3.58;;
64678;SDS011;51094;53.864;27.676;2023-11-21T07:30:56;3.70;;;3.60;;
64678;SDS011;51094;53.864;27.676;2023-11-21T07:33:23;3.50;;;3.40;;
64678;SDS011;51094;53.864;27.676;2023-11-21T07:35:50;3.72;;;3.63;;
64678;SDS011;51094;53.864;27.676;2023-11-21T07:38:17;3.70;;;3.60;;
64678;SDS011;51094;53.864;27.676;2023-11-21T07:40:44;3.70;;;3.60;;
64678;SDS011;51094;53.864;27.676;2023-11-21T07:43:11;3.83;;;3.72;;
64678;SDS011;51094;53.864;27.676;2023-11-21T07:49:12;3.55;;;3.45;;
64678;SDS011;51094;53.864;27.676;2023-11-21T07:56:02;3.40;;;3.30;;
64678;SDS011;51094;53.864;27.676;2023-11-21T08:01:29;3.58;;;3.47;;
64678;SDS011;51094;53.864;27.676;2023-11-21T08:03:56;3.75;;;3.65;;
64678;SDS011;51094;53.864;27.676;2023-11-21T08:06:29;4.18;;;4.07;;
64678;SDS011;51094;53.864;27.676;2023-11-21T08:08:57;3.40;;;3.40;;
64678;SDS011;51094;53.864;27.676;2023-11-21T08:17:01;3.33;;;3.22;;
64678;SDS011;51094;53.864;27.676;2023-11-21T08:19:28;3.80;;;3.70;;
64678;SDS011;51094;53.864;27.676;2023-11-21T08:36:35;3.72;;;3.63;;
64678;SDS011;51094;53.864;27.676;2023-11-21T08:39:02;3.88;;;3.78;;
64678;SDS011;51094;53.864;27.676;2023-11-21T08:41:30;3.78;;;3.67;;
64678;SDS011;51094;53.864;27.676;2023-11-21T08:49:33;3.15;;;3.15;;
64678;SDS011;51094;53.864;27.676;2023-11-21T08:52:00;3.75;;;3.65;;
64678;SDS011;51094;53.864;27.676;2023-11-21T08:57:39;3.85;;;3.75;;
64678;SDS011;51094;53.864;27.676;2023-11-21T09:00:09;3.90;;;3.80;;
64678;SDS011;51094;53.864;27.676;2023-11-21T09:08:19;3.22;;;3.13;;
64678;SDS011;51094;53.864;27.676;2023-11-21T09:16:22;2.50;;;2.50;;
64678;SDS011;51094;53.864;27.676;2023-11-21T09:18:49;2.90;;;2.80;;
64678;SDS011;51094;53.864;27.676;2023-11-21T09:24:18;2.97;;;2.88;;
64678;SDS011;51094;53.864;27.676;2023-11-21T09:26:45;2.45;;;2.38;;
64678;SDS011;51094;53.864;27.676;2023-11-21T09:34:16;2.55;;;2.55;;
64678;SDS011;51094;53.864;27.676;2023-11-21T09:36:46;2.20;;;2.20;;
64678;SDS011;51094;53.864;27.676;2023-11-21T09:39:14;2.38;;;2.38;;
64678;SDS011;51094;53.864;27.676;2023-11-21T09:41:46;2.33;;;2.28;;
64678;SDS011;51094;53.864;27.676;2023-11-21T09:44:22;2.30;;;2.30;;
64678;SDS011;51094;53.864;27.676;2023-11-21T09:46:59;2.40;;;2.40;;
64678;SDS011;51094;53.864;27.676;2023-11-21T09:55:54;2.40;;;2.40;;
64678;SDS011;51094;53.864;27.676;2023-11-21T10:03:28;2.22;;;2.22;;
64678;SDS011;51094;53.864;27.676;2023-11-21T10:05:56;2.35;;;2.35;;
64678;SDS011;51094;53.864;27.676;2023-11-21T10:08:27;2.60;;;2.50;;
64678;SDS011;51094;53.864;27.676;2023-11-21T10:11:12;2.40;;;2.40;;
64678;SDS011;51094;53.864;27.676;2023-11-21T10:13:41;2.20;;;2.20;;
64678;SDS011;51094;53.864;27.676;2023-11-21T10:16:10;1.98;;;1.98;;
64678;SDS011;51094;53.864;27.676;2023-11-21T10:18:42;2.00;;;2.00;;
64678;SDS011;51094;53.864;27.676;2023-11-21T10:23:40;2.70;;;2.70;;
64678;SDS011;51094;53.864;27.676;2023-11-21T10:26:07;2.65;;;2.60;;
64678;SDS011;51094;53.864;27.676;2023-11-21T10:28:59;2.80;;;2.70;;
64678;SDS011;51094;53.864;27.676;2023-11-21T10:31:27;2.63;;;2.63;;
64678;SDS011;51094;53.864;27.676;2023-11-21T10:33:56;2.88;;;2.88;;
64678;SDS011;51094;53.864;27.676;2023-11-21T10:36:38;2.95;;;2.95;;
64678;SDS011;51094;53.864;27.676;2023-11-21T10:39:05;3.13;;;3.03;;
64678;SDS011;51094;53.864;27.676;2023-11-21T10:41:32;2.83;;;2.83;;
64678;SDS011;51094;53.864;27.676;2023-11-21T10:43:59;2.72;;;2.70;;
64678;SDS011;51094;53.864;27.676;2023-11-21T10:46:26;2.63;;;2.63;;
64678;SDS011;51094;53.864;27.676;2023-11-21T10:48:53;2.58;;;2.58;;
64678;SDS011;51094;53.864;27.676;2023-11-21T10:51:23;3.08;;;2.97;;
64678;SDS011;51094;53.864;27.676;2023-11-21T10:53:51;2.97;;;2.97;;
64678;SDS011;51094;53.864;27.676;2023-11-21T10:56:19;2.63;;;2.58;;
64678;SDS011;51094;53.864;27.676;2023-11-21T10:58:50;2.58;;;2.55;;
64678;SDS011;51094;53.864;27.676;2023-11-21T11:01:21;2.70;;;2.60;;
64678;SDS011;51094;53.864;27.676;2023-11-21T11:03:51;2.45;;;2.40;;
64678;SDS011;51094;53.864;27.676;2023-11-21T11:06:21;2.13;;;2.13;;
64678;SDS011;51094;53.864;27.676;2023-11-21T11:08:50;2.20;;;2.20;;
64678;SDS011;51094;53.864;27.676;2023-11-21T11:11:17;2.25;;;2.25;;
64678;SDS011;51094;53.864;27.676;2023-11-21T11:13:45;2.30;;;2.30;;
64678;SDS011;51094;53.864;27.676;2023-11-21T11:16:12;2.40;;;2.35;;
64678;SDS011;51094;53.864;27.676;2023-11-21T11:18:44;2.15;;;2.15;;
64678;SDS011;51094;53.864;27.676;2023-11-21T11:32:55;2.30;;;2.22;;
64678;SDS011;51094;53.864;27.676;2023-11-21T11:38:31;2.50;;;2.50;;
64678;SDS011;51094;53.864;27.676;2023-11-21T11:41:01;2.65;;;2.65;;
64678;SDS011;51094;53.864;27.676;2023-11-21T11:45:59;2.20;;;2.20;;
64678;SDS011;51094;53.864;27.676;2023-11-21T11:48:34;2.28;;;2.28;;
64678;SDS011;51094;53.864;27.676;2023-11-21T11:51:11;2.50;;;2.40;;
64678;SDS011;51094;53.864;27.676;2023-11-21T11:53:48;2.40;;;2.40;;
64678;SDS011;51094;53.864;27.676;2023-11-21T11:59:03;2.15;;;2.15;;
64678;SDS011;51094;53.864;27.676;2023-11-21T12:01:32;2.22;;;2.22;;
64678;SDS011;51094;53.864;27.676;2023-11-21T12:06:44;2.30;;;2.30;;
64678;SDS011;51094;53.864;27.676;2023-11-21T12:09:29;2.53;;;2.50;;
64678;SDS011;51094;53.864;27.676;2023-11-21T12:11:58;2.40;;;2.40;;
64678;SDS011;51094;53.864;27.676;2023-11-21T12:14:25;2.45;;;2.45;;
64678;SDS011;51094;53.864;27.676;2023-11-21T12:16:52;2.58;;;2.58;;
64678;SDS011;51094;53.864;27.676;2023-11-21T12:19:20;2.35;;;2.35;;
64678;SDS011;51094;53.864;27.676;2023-11-21T12:21:47;2.20;;;2.20;;
64678;SDS011;51094;53.864;27.676;2023-11-21T12:24:15;2.30;;;2.30;;
64678;SDS011;51094;53.864;27.676;2023-11-21T12:26:43;2.20;;;2.20;;
64678;SDS011;51094;53.864;27.676;2023-11-21T12:29:13;2.28;;;2.28;;
64678;SDS011;51094;53.864;27.676;2023-11-21T12:31:40;2.10;;;2.10;;
64678;SDS011;51094;53.864;27.676;2023-11-21T12:34:08;2.30;;;2.30;;
64678;SDS011;51094;53.864;27.676;2023-11-21T12:36:37;2.55;;;2.55;;
64678;SDS011;51094;53.864;27.676;2023-11-21T12:39:05;2.50;;;2.40;;
64678;SDS011;51094;53.864;27.676;2023-11-21T12:41:31;2.40;;;2.30;;
64678;SDS011;51094;53.864;27.676;2023-11-21T12:43:58;2.55;;;2.50;;
64678;SDS011;51094;53.864;27.676;2023-11-21T12:46:25;3.35;;;3.22;;
64678;SDS011;51094;53.864;27.676;2023-11-21T12:48:57;2.40;;;2.40;;
64678;SDS011;51094;53.864;27.676;2023-11-21T12:51:24;2.80;;;2.70;;
64678;SDS011;51094;53.864;27.676;2023-11-21T12:53:51;2.55;;;2.55;;
64678;SDS011;51094;53.864;27.676;2023-11-21T12:56:21;2.40;;;2.30;;
64678;SDS011;51094;53.864;27.676;2023-11-21T12:58:50;2.30;;;2.30;;
64678;SDS011;51094;53.864;27.676;2023-11-21T13:03:50;2.08;;;2.08;;
64678;SDS011;51094;53.864;27.676;2023-11-21T13:06:18;2.22;;;2.22;;
64678;SDS011;51094;53.864;27.676;2023-11-21T13:08:46;2.30;;;2.30;;
64678;SDS011;51094;53.864;27.676;2023-11-21T13:11:13;2.33;;;2.25;;
64678;SDS011;51094;53.864;27.676;2023-11-21T13:13:42;2.50;;;2.50;;
64678;SDS011;51094;53.864;27.676;2023-11-21T13:16:10;2.17;;;2.08;;
64678;SDS011;51094;53.864;27.676;2023-11-21T13:18:37;1.92;;;1.92;;
64678;SDS011;51094;53.864;27.676;2023-11-21T13:21:08;1.80;;;1.80;;
64678;SDS011;51094;53.864;27.676;2023-11-21T13:23:39;1.70;;;1.70;;
64678;SDS011;51094;53.864;27.676;2023-11-21T13:26:08;1.85;;;1.85;;
64678;SDS011;51094;53.864;27.676;2023-11-21T13:28:36;1.60;;;1.60;;
64678;SDS011;51094;53.864;27.676;2023-11-21T13:31:05;1.90;;;1.90;;
64678;SDS011;51094;53.864;27.676;2023-11-21T13:33:38;1.70;;;1.70;;
64678;SDS011;51094;53.864;27.676;2023-11-21T13:36:08;1.80;;;1.70;;
64678;SDS011;51094;53.864;27.676;2023-11-21T13:38:37;1.75;;;1.75;;
64678;SDS011;51094;53.864;27.676;2023-11-21T13:41:08;1.75;;;1.75;;
64678;SDS011;51094;53.864;27.676;2023-11-21T13:43:36;1.50;;;1.50;;
64678;SDS011;51094;53.864;27.676;2023-11-21T13:46:04;1.60;;;1.60;;
64678;SDS011;51094;53.864;27.676;2023-11-21T13:48:40;1.50;;;1.50;;
64678;SDS011;51094;53.864;27.676;2023-11-21T13:51:09;1.35;;;1.35;;
64678;SDS011;51094;53.864;27.676;2023-11-21T13:53:44;1.30;;;1.30;;
64678;SDS011;51094;53.864;27.676;2023-11-21T13:56:17;1.50;;;1.50;;
64678;SDS011;51094;53.864;27.676;2023-11-21T13:58:51;1.40;;;1.40;;
64678;SDS011;51094;53.864;27.676;2023-11-21T14:01:20;1.70;;;1.70;;
64678;SDS011;51094;53.864;27.676;2023-11-21T14:04:08;1.20;;;1.20;;
64678;SDS011;51094;53.864;27.676;2023-11-21T14:06:46;1.20;;;1.20;;
64678;SDS011;51094;53.864;27.676;2023-11-21T14:09:16;1.40;;;1.40;;
64678;SDS011;51094;53.864;27.676;2023-11-21T14:12:02;1.40;;;1.40;;
64678;SDS011;51094;53.864;27.676;2023-11-21T14:14:33;1.20;;;1.20;;
64678;SDS011;51094;53.864;27.676;2023-11-21T14:17:00;1.90;;;1.90;;
64678;SDS011;51094;53.864;27.676;2023-11-21T14:19:33;1.88;;;1.88;;
64678;SDS011;51094;53.864;27.676;2023-11-21T14:22:03;2.20;;;2.20;;
64678;SDS011;51094;53.864;27.676;2023-11-21T14:24:30;1.80;;;1.77;;
64678;SDS011;51094;53.864;27.676;2023-11-21T14:26:59;1.45;;;1.45;;
64678;SDS011;51094;53.864;27.676;2023-11-21T14:29:26;1.50;;;1.50;;
64678;SDS011;51094;53.864;27.676;2023-11-21T14:31:54;1.52;;;1.52;;
64678;SDS011;51094;53.864;27.676;2023-11-21T14:34:23;1.88;;;1.88;;
64678;SDS011;51094;53.864;27.676;2023-11-21T14:36:51;1.67;;;1.67;;
64678;SDS011;51094;53.864;27.676;2023-11-21T14:39:18;1.80;;;1.80;;
64678;SDS011;51094;53.864;27.676;2023-11-21T14:41:54;1.80;;;1.80;;
64678;SDS011;51094;53.864;27.676;2023-11-21T14:44:23;1.92;;;1.92;;
64678;SDS011;51094;53.864;27.676;2023-11-21T14:46:53;2.13;;;2.13;;
64678;SDS011;51094;53.864;27.676;2023-11-21T14:49:24;2.30;;;2.30;;
64678;SDS011;51094;53.864;27.676;2023-11-21T14:51:54;2.63;;;2.58;;
64678;SDS011;51094;53.864;27.676;2023-11-21T14:54:21;2.38;;;2.35;;
64678;SDS011;51094;53.864;27.676;2023-11-21T14:57:06;2.45;;;2.45;;
64678;SDS011;51094;53.864;27.676;2023-11-21T14:59:46;2.40;;;2.40;;
64678;SDS011;51094;53.864;27.676;2023-11-21T15:02:18;2.25;;;2.25;;
64678;SDS011;51094;53.864;27.676;2023-11-21T15:05:09;2.22;;;2.22;;
64678;SDS011;51094;53.864;27.676;2023-11-21T15:07:41;2.45;;;2.45;;
64678;SDS011;51094;53.864;27.676;2023-11-21T15:10:08;2.38;;;2.28;;
64678;SDS011;51094;53.864;27.676;2023-11-21T15:12:41;2.92;;;2.83;;
64678;SDS011;51094;53.864;27.676;2023-11-21T15:15:11;3.42;;;3.33;;
64678;SDS011;51094;53.864;27.676;2023-11-21T15:17:38;3.70;;;3.60;;
64678;SDS011;51094;53.864;27.676;2023-11-21T15:20:09;3.60;;;3.50;;
64678;SDS011;51094;53.864;27.676;2023-11-21T15:22:45;3.60;;;3.50;;
64678;SDS011;51094;53.864;27.676;2023-11-21T15:25:12;3.22;;;3.13;;
64678;SDS011;51094;53.864;27.676;2023-11-21T15:27:40;3.33;;;3.22;;
64678;SDS011;51094;53.864;27.676;2023-11-21T15:30:07;3.70;;;3.60;;
64678;SDS011;51094;53.864;27.676;2023-11-21T15:32:35;3.50;;;3.40;;
64678;SDS011;51094;53.864;27.676;2023-11-21T15:35:02;3.70;;;3.60;;
64678;SDS011;51094;53.864;27.676;2023-11-21T15:37:29;3.75;;;3.65;;
64678;SDS011;51094;53.864;27.676;2023-11-21T15:39:56;3.35;;;3.25;;
64678;SDS011;51094;53.864;27.676;2023-11-21T15:42:23;3.30;;;3.20;;
64678;SDS011;51094;53.864;27.676;2023-11-21T15:44:50;3.47;;;3.38;;
64678;SDS011;51094;53.864;27.676;2023-11-21T15:47:20;3.00;;;2.80;;
64678;SDS011;51094;53.864;27.676;2023-11-21T15:49:47;2.90;;;2.80;;
64678;SDS011;51094;53.864;27.676;2023-11-21T15:52:16;2.75;;;2.75;;
64678;SDS011;51094;53.864;27.676;2023-11-21T15:54:43;2.65;;;2.65;;
64678;SDS011;51094;53.864;27.676;2023-11-21T15:57:12;2.70;;;2.60;;
64678;SDS011;51094;53.864;27.676;2023-11-21T15:59:40;2.70;;;2.60;;
64678;SDS011;51094;53.864;27.676;2023-11-21T16:02:08;2.53;;;2.53;;
64678;SDS011;51094;53.864;27.676;2023-11-21T16:04:37;2.88;;;2.88;;
64678;SDS011;51094;53.864;27.676;2023-11-21T16:07:04;2.47;;;2.40;;
64678;SDS011;51094;53.864;27.676;2023-11-21T16:09:34;3.00;;;2.95;;
64678;SDS011;51094;53.864;27.676;2023-11-21T16:12:04;2.83;;;2.72;;
64678;SDS011;51094;53.864;27.676;2023-11-21T16:14:33;2.60;;;2.53;;
64678;SDS011;51094;53.864;27.676;2023-11-21T16:17:12;3.20;;;3.10;;
64678;SDS011;51094;53.864;27.676;2023-11-21T16:19:40;2.85;;;2.75;;
64678;SDS011;51094;53.864;27.676;2023-11-21T16:22:10;3.30;;;3.20;;
64678;SDS011;51094;53.864;27.676;2023-11-21T16:24:37;2.72;;;2.63;;
64678;SDS011;51094;53.864;27.676;2023-11-21T16:27:05;2.75;;;2.75;;
64678;SDS011;51094;53.864;27.676;2023-11-21T16:29:37;2.88;;;2.78;;
64678;SDS011;51094;53.864;27.676;2023-11-21T16:32:05;3.00;;;2.90;;
64678;SDS011;51094;53.864;27.676;2023-11-21T16:34:37;2.55;;;2.55;;
64678;SDS011;51094;53.864;27.676;2023-11-21T16:37:07;2.75;;;2.65;;
64678;SDS011;51094;53.864;27.676;2023-11-21T16:39:38;2.30;;;2.30;;
64678;SDS011;51094;53.864;27.676;2023-11-21T16:42:08;2.40;;;2.40;;
64678;SDS011;51094;53.864;27.676;2023-11-21T16:44:35;2.20;;;2.20;;
64678;SDS011;51094;53.864;27.676;2023-11-21T16:47:02;2.15;;;2.15;;
64678;SDS011;51094;53.864;27.676;2023-11-21T16:49:33;1.90;;;1.90;;
64678;SDS011;51094;53.864;27.676;2023-11-21T16:52:00;1.50;;;1.50;;
64678;SDS011;51094;53.864;27.676;2023-11-21T16:54:29;1.50;;;1.50;;
64678;SDS011;51094;53.864;27.676;2023-11-21T16:56:56;1.40;;;1.40;;
64678;SDS011;51094;53.864;27.676;2023-11-21T16:59:23;1.73;;;1.73;;
64678;SDS011;51094;53.864;27.676;2023-11-21T17:01:50;1.70;;;1.70;;